sensor_id;sensor_type;location;lat;lon;timestamp;temperature;humidity
52451;DHT22;38366;53.176;6.540;2022-11-15T00:00:50;8.10;99.90
52451;DHT22;38366;53.176;6.540;2022-11-15T00:03:17;8.40;99.90
52451;DHT22;38366;53.176;6.540;2022-11-15T00:05:44;8.00;99.90
52451;DHT22;38366;53.176;6.540;2022-11-15T00:08:10;8.20;99.90
52451;DHT22;38366;53.176;6.540;2022-11-15T00:10:36;8.20;99.90
52451;DHT22;38366;53.176;6.540;2022-11-15T00:13:06;7.90;99.90
52451;DHT22;38366;53.176;6.540;2022-11-15T00:15:35;7.80;99.90
52451;DHT22;38366;53.176;6.540;2022-11-15T00:18:02;7.80;99.90
52451;DHT22;38366;53.176;6.540;2022-11-15T00:20:27;8.00;99.90
52451;DHT22;38366;53.176;6.540;2022-11-15T00:22:53;7.80;99.90
52451;DHT22;38366;53.176;6.540;2022-11-15T00:25:19;8.40;99.90
52451;DHT22;38366;53.176;6.540;2022-11-15T00:27:44;7.50;99.90
52451;DHT22;38366;53.176;6.540;2022-11-15T00:30:11;7.90;99.90
52451;DHT22;38366;53.176;6.540;2022-11-15T00:32:37;7.50;99.90
52451;DHT22;38366;53.176;6.540;2022-11-15T00:35:03;7.50;99.90
52451;DHT22;38366;53.176;6.540;2022-11-15T00:37:28;7.50;99.90
52451;DHT22;38366;53.176;6.540;2022-11-15T00:39:54;7.60;99.90
52451;DHT22;38366;53.176;6.540;2022-11-15T00:42:20;7.70;99.90
52451;DHT22;38366;53.176;6.540;2022-11-15T00:44:45;8.30;99.90
52451;DHT22;38366;53.176;6.540;2022-11-15T00:47:11;7.60;99.90
52451;DHT22;38366;53.176;6.540;2022-11-15T00:49:37;8.40;99.90
52451;DHT22;38366;53.176;6.540;2022-11-15T00:52:02;7.60;99.90
52451;DHT22;38366;53.176;6.540;2022-11-15T00:54:28;7.70;99.90
52451;DHT22;38366;53.176;6.540;2022-11-15T00:56:54;8.30;99.90
52451;DHT22;38366;53.176;6.540;2022-11-15T00:59:19;8.00;99.90
52451;DHT22;38366;53.176;6.540;2022-11-15T01:01:45;7.70;99.90
52451;DHT22;38366;53.176;6.540;2022-11-15T01:04:11;7.70;99.90
52451;DHT22;38366;53.176;6.540;2022-11-15T01:06:37;7.70;99.90
52451;DHT22;38366;53.176;6.540;2022-11-15T01:09:02;7.90;99.90
52451;DHT22;38366;53.176;6.540;2022-11-15T01:11:28;7.70;99.90
52451;DHT22;38366;53.176;6.540;2022-11-15T01:13:55;7.80;99.90
52451;DHT22;38366;53.176;6.540;2022-11-15T01:16:20;7.80;99.90
52451;DHT22;38366;53.176;6.540;2022-11-15T01:18:46;7.90;99.90
52451;DHT22;38366;53.176;6.540;2022-11-15T01:21:15;7.80;99.90
52451;DHT22;38366;53.176;6.540;2022-11-15T01:23:41;8.10;99.90
52451;DHT22;38366;53.176;6.540;2022-11-15T01:26:10;7.70;99.90
52451;DHT22;38366;53.176;6.540;2022-11-15T01:28:37;7.70;99.90
52451;DHT22;38366;53.176;6.540;2022-11-15T01:31:06;7.70;99.90
52451;DHT22;38366;53.176;6.540;2022-11-15T01:33:34;7.80;99.90
52451;DHT22;38366;53.176;6.540;2022-11-15T01:36:07;7.70;99.90
52451;DHT22;38366;53.176;6.540;2022-11-15T01:38:33;7.80;99.90
52451;DHT22;38366;53.176;6.540;2022-11-15T01:40:59;7.80;99.90
52451;DHT22;38366;53.176;6.540;2022-11-15T01:43:36;7.70;99.90
52451;DHT22;38366;53.176;6.540;2022-11-15T01:48:45;7.70;99.90
52451;DHT22;38366;53.176;6.540;2022-11-15T01:51:13;7.70;99.90
52451;DHT22;38366;53.176;6.540;2022-11-15T01:53:44;7.70;99.90
52451;DHT22;38366;53.176;6.540;2022-11-15T01:56:18;7.70;99.90
52451;DHT22;38366;53.176;6.540;2022-11-15T01:58:45;7.90;99.90
52451;DHT22;38366;53.176;6.540;2022-11-15T02:01:13;7.70;99.90
52451;DHT22;38366;53.176;6.540;2022-11-15T02:06:47;7.70;99.90
52451;DHT22;38366;53.176;6.540;2022-11-15T02:09:13;7.90;99.90
52451;DHT22;38366;53.176;6.540;2022-11-15T02:11:40;8.10;99.90
52451;DHT22;38366;53.176;6.540;2022-11-15T02:14:06;7.70;99.90
52451;DHT22;38366;53.176;6.540;2022-11-15T02:22:35;7.70;99.90
52451;DHT22;38366;53.176;6.540;2022-11-15T02:31:08;7.60;99.90
52451;DHT22;38366;53.176;6.540;2022-11-15T02:34:00;7.60;99.90
52451;DHT22;38366;53.176;6.540;2022-11-15T02:42:01;7.70;99.90
52451;DHT22;38366;53.176;6.540;2022-11-15T02:44:39;7.70;99.90
52451;DHT22;38366;53.176;6.540;2022-11-15T02:47:11;7.60;99.90
52451;DHT22;38366;53.176;6.540;2022-11-15T02:49:52;7.60;99.90
52451;DHT22;38366;53.176;6.540;2022-11-15T02:52:23;7.60;99.90
52451;DHT22;38366;53.176;6.540;2022-11-15T02:54:55;7.70;99.90
52451;DHT22;38366;53.176;6.540;2022-11-15T03:00:32;7.50;99.90
52451;DHT22;38366;53.176;6.540;2022-11-15T03:11:21;7.50;99.90
52451;DHT22;38366;53.176;6.540;2022-11-15T03:13:58;7.60;99.90
52451;DHT22;38366;53.176;6.540;2022-11-15T03:16:58;7.60;99.90
52451;DHT22;38366;53.176;6.540;2022-11-15T03:19:36;7.60;99.90
52451;DHT22;38366;53.176;6.540;2022-11-15T03:22:06;7.70;99.90
52451;DHT22;38366;53.176;6.540;2022-11-15T03:24:36;7.60;99.90
52451;DHT22;38366;53.176;6.540;2022-11-15T03:27:05;7.60;99.90
52451;DHT22;38366;53.176;6.540;2022-11-15T03:29:34;7.60;99.90
52451;DHT22;38366;53.176;6.540;2022-11-15T03:32:12;7.70;99.90
52451;DHT22;38366;53.176;6.540;2022-11-15T03:37:08;7.70;99.90
52451;DHT22;38366;53.176;6.540;2022-11-15T03:39:35;7.70;99.90
52451;DHT22;38366;53.176;6.540;2022-11-15T03:42:10;7.70;99.90
52451;DHT22;38366;53.176;6.540;2022-11-15T03:50:04;7.80;99.90
52451;DHT22;38366;53.176;6.540;2022-11-15T03:52:33;7.80;99.90
52451;DHT22;38366;53.176;6.540;2022-11-15T03:55:01;7.80;99.90
52451;DHT22;38366;53.176;6.540;2022-11-15T03:57:29;7.80;99.90
52451;DHT22;38366;53.176;6.540;2022-11-15T03:59:54;8.30;99.90
52451;DHT22;38366;53.176;6.540;2022-11-15T04:02:20;8.80;99.90
52451;DHT22;38366;53.176;6.540;2022-11-15T04:04:46;8.00;99.90
52451;DHT22;38366;53.176;6.540;2022-11-15T04:07:11;7.80;99.90
52451;DHT22;38366;53.176;6.540;2022-11-15T04:09:37;7.90;99.90
52451;DHT22;38366;53.176;6.540;2022-11-15T04:12:23;8.00;99.90
52451;DHT22;38366;53.176;6.540;2022-11-15T04:15:08;7.90;99.90
52451;DHT22;38366;53.176;6.540;2022-11-15T04:17:41;8.00;99.90
52451;DHT22;38366;53.176;6.540;2022-11-15T04:22:56;8.00;99.90
52451;DHT22;38366;53.176;6.540;2022-11-15T04:25:41;8.70;99.90
52451;DHT22;38366;53.176;6.540;2022-11-15T04:28:07;8.30;99.90
52451;DHT22;38366;53.176;6.540;2022-11-15T04:30:33;8.00;99.90
52451;DHT22;38366;53.176;6.540;2022-11-15T04:32:59;8.80;99.90
52451;DHT22;38366;53.176;6.540;2022-11-15T04:35:25;8.00;99.90
52451;DHT22;38366;53.176;6.540;2022-11-15T04:37:51;8.00;99.90
52451;DHT22;38366;53.176;6.540;2022-11-15T04:40:17;7.90;99.90
52451;DHT22;38366;53.176;6.540;2022-11-15T04:42:42;8.00;99.90
52451;DHT22;38366;53.176;6.540;2022-11-15T04:45:09;8.00;99.90
52451;DHT22;38366;53.176;6.540;2022-11-15T04:47:34;8.00;99.90
52451;DHT22;38366;53.176;6.540;2022-11-15T04:50:00;8.00;99.90
52451;DHT22;38366;53.176;6.540;2022-11-15T04:52:26;8.30;99.90
52451;DHT22;38366;53.176;6.540;2022-11-15T04:54:52;8.00;99.90
52451;DHT22;38366;53.176;6.540;2022-11-15T04:57:18;8.00;99.90
52451;DHT22;38366;53.176;6.540;2022-11-15T04:59:43;8.00;99.90
52451;DHT22;38366;53.176;6.540;2022-11-15T05:02:09;8.00;99.90
52451;DHT22;38366;53.176;6.540;2022-11-15T05:04:35;8.10;99.90
52451;DHT22;38366;53.176;6.540;2022-11-15T05:07:01;8.20;99.90
52451;DHT22;38366;53.176;6.540;2022-11-15T05:09:27;8.10;99.90
52451;DHT22;38366;53.176;6.540;2022-11-15T05:11:53;8.10;99.90
52451;DHT22;38366;53.176;6.540;2022-11-15T05:14:18;8.10;99.90
52451;DHT22;38366;53.176;6.540;2022-11-15T05:16:44;8.10;99.90
52451;DHT22;38366;53.176;6.540;2022-11-15T05:19:10;8.20;99.90
52451;DHT22;38366;53.176;6.540;2022-11-15T05:21:36;8.20;99.90
52451;DHT22;38366;53.176;6.540;2022-11-15T05:24:03;8.20;99.90
52451;DHT22;38366;53.176;6.540;2022-11-15T05:26:29;8.20;99.90
52451;DHT22;38366;53.176;6.540;2022-11-15T05:28:55;8.30;99.90
52451;DHT22;38366;53.176;6.540;2022-11-15T05:31:21;8.60;99.90
52451;DHT22;38366;53.176;6.540;2022-11-15T05:33:49;8.20;99.90
52451;DHT22;38366;53.176;6.540;2022-11-15T05:39:04;8.30;99.90
52451;DHT22;38366;53.176;6.540;2022-11-15T05:41:39;8.30;99.90
52451;DHT22;38366;53.176;6.540;2022-11-15T05:44:07;8.30;99.90
52451;DHT22;38366;53.176;6.540;2022-11-15T05:46:36;8.90;99.90
52451;DHT22;38366;53.176;6.540;2022-11-15T05:49:02;8.40;99.90
52451;DHT22;38366;53.176;6.540;2022-11-15T05:51:30;8.40;99.90
52451;DHT22;38366;53.176;6.540;2022-11-15T05:53:57;8.40;99.90
52451;DHT22;38366;53.176;6.540;2022-11-15T05:56:23;8.40;99.90
52451;DHT22;38366;53.176;6.540;2022-11-15T05:58:53;8.40;99.90
52451;DHT22;38366;53.176;6.540;2022-11-15T06:01:19;8.50;99.90
52451;DHT22;38366;53.176;6.540;2022-11-15T06:03:45;8.60;99.90
52451;DHT22;38366;53.176;6.540;2022-11-15T06:06:11;8.60;99.90
52451;DHT22;38366;53.176;6.540;2022-11-15T06:08:36;8.60;99.90
52451;DHT22;38366;53.176;6.540;2022-11-15T06:11:06;8.60;99.90
52451;DHT22;38366;53.176;6.540;2022-11-15T06:13:32;8.70;99.90
52451;DHT22;38366;53.176;6.540;2022-11-15T06:15:59;8.80;99.90
52451;DHT22;38366;53.176;6.540;2022-11-15T06:18:25;8.80;99.90
52451;DHT22;38366;53.176;6.540;2022-11-15T06:20:51;8.80;99.90
52451;DHT22;38366;53.176;6.540;2022-11-15T06:23:16;9.10;99.90
52451;DHT22;38366;53.176;6.540;2022-11-15T06:25:42;8.90;99.90
52451;DHT22;38366;53.176;6.540;2022-11-15T06:28:08;8.90;99.90
52451;DHT22;38366;53.176;6.540;2022-11-15T06:30:34;8.90;99.90
52451;DHT22;38366;53.176;6.540;2022-11-15T06:33:04;9.00;99.90
52451;DHT22;38366;53.176;6.540;2022-11-15T06:35:33;9.10;99.90
52451;DHT22;38366;53.176;6.540;2022-11-15T06:38:08;9.10;99.90
52451;DHT22;38366;53.176;6.540;2022-11-15T06:40:36;9.60;99.90
52451;DHT22;38366;53.176;6.540;2022-11-15T06:43:02;9.20;99.90
52451;DHT22;38366;53.176;6.540;2022-11-15T06:45:28;9.40;99.90
52451;DHT22;38366;53.176;6.540;2022-11-15T06:47:54;9.30;99.90
52451;DHT22;38366;53.176;6.540;2022-11-15T06:50:20;9.30;99.90
52451;DHT22;38366;53.176;6.540;2022-11-15T06:52:45;9.30;99.90
52451;DHT22;38366;53.176;6.540;2022-11-15T06:55:11;9.30;99.90
52451;DHT22;38366;53.176;6.540;2022-11-15T06:57:37;9.40;99.90
52451;DHT22;38366;53.176;6.540;2022-11-15T07:00:06;9.40;99.90
52451;DHT22;38366;53.176;6.540;2022-11-15T07:02:32;9.50;99.90
52451;DHT22;38366;53.176;6.540;2022-11-15T07:04:57;9.50;99.90
52451;DHT22;38366;53.176;6.540;2022-11-15T07:07:23;9.50;99.90
52451;DHT22;38366;53.176;6.540;2022-11-15T07:09:49;9.50;99.90
52451;DHT22;38366;53.176;6.540;2022-11-15T07:12:14;9.60;99.90
52451;DHT22;38366;53.176;6.540;2022-11-15T07:14:40;9.60;99.90
52451;DHT22;38366;53.176;6.540;2022-11-15T07:17:06;9.70;99.90
52451;DHT22;38366;53.176;6.540;2022-11-15T07:19:32;9.70;99.90
52451;DHT22;38366;53.176;6.540;2022-11-15T07:21:57;9.70;99.90
52451;DHT22;38366;53.176;6.540;2022-11-15T07:24:23;9.70;99.90
52451;DHT22;38366;53.176;6.540;2022-11-15T07:26:48;9.80;99.90
52451;DHT22;38366;53.176;6.540;2022-11-15T07:29:14;9.70;99.90
52451;DHT22;38366;53.176;6.540;2022-11-15T07:31:40;9.80;99.90
52451;DHT22;38366;53.176;6.540;2022-11-15T07:34:05;9.80;99.90
52451;DHT22;38366;53.176;6.540;2022-11-15T07:36:31;9.80;99.90
52451;DHT22;38366;53.176;6.540;2022-11-15T07:38:57;9.90;99.90
52451;DHT22;38366;53.176;6.540;2022-11-15T07:41:22;9.90;99.90
52451;DHT22;38366;53.176;6.540;2022-11-15T07:43:51;10.00;99.90
52451;DHT22;38366;53.176;6.540;2022-11-15T07:46:17;9.90;99.90
52451;DHT22;38366;53.176;6.540;2022-11-15T07:48:43;9.90;99.90
52451;DHT22;38366;53.176;6.540;2022-11-15T07:51:13;10.00;99.90
52451;DHT22;38366;53.176;6.540;2022-11-15T07:53:39;10.00;99.90
52451;DHT22;38366;53.176;6.540;2022-11-15T07:56:09;10.10;99.90
52451;DHT22;38366;53.176;6.540;2022-11-15T07:58:35;10.10;99.90
52451;DHT22;38366;53.176;6.540;2022-11-15T08:01:05;10.10;99.90
52451;DHT22;38366;53.176;6.540;2022-11-15T08:03:31;10.10;99.90
52451;DHT22;38366;53.176;6.540;2022-11-15T08:05:57;10.10;99.90
52451;DHT22;38366;53.176;6.540;2022-11-15T08:08:23;10.20;99.90
52451;DHT22;38366;53.176;6.540;2022-11-15T08:10:49;10.20;99.90
52451;DHT22;38366;53.176;6.540;2022-11-15T08:13:14;10.30;99.90
52451;DHT22;38366;53.176;6.540;2022-11-15T08:15:40;10.30;99.90
52451;DHT22;38366;53.176;6.540;2022-11-15T08:18:10;10.30;99.90
52451;DHT22;38366;53.176;6.540;2022-11-15T08:20:37;10.30;99.90
52451;DHT22;38366;53.176;6.540;2022-11-15T08:23:03;10.40;99.90
52451;DHT22;38366;53.176;6.540;2022-11-15T08:25:31;10.40;99.90
52451;DHT22;38366;53.176;6.540;2022-11-15T08:28:00;10.40;99.90
52451;DHT22;38366;53.176;6.540;2022-11-15T08:30:27;10.50;99.90
52451;DHT22;38366;53.176;6.540;2022-11-15T08:32:55;10.50;99.90
52451;DHT22;38366;53.176;6.540;2022-11-15T08:35:21;10.50;99.90
52451;DHT22;38366;53.176;6.540;2022-11-15T08:37:47;10.60;99.90
52451;DHT22;38366;53.176;6.540;2022-11-15T08:40:13;10.60;99.90
52451;DHT22;38366;53.176;6.540;2022-11-15T08:42:39;10.60;99.90
52451;DHT22;38366;53.176;6.540;2022-11-15T08:45:06;10.70;99.90
52451;DHT22;38366;53.176;6.540;2022-11-15T08:47:32;10.70;99.90
52451;DHT22;38366;53.176;6.540;2022-11-15T08:49:58;10.70;99.90
52451;DHT22;38366;53.176;6.540;2022-11-15T08:52:24;10.70;99.90
52451;DHT22;38366;53.176;6.540;2022-11-15T08:54:49;10.70;99.90
52451;DHT22;38366;53.176;6.540;2022-11-15T08:57:15;10.80;99.90
52451;DHT22;38366;53.176;6.540;2022-11-15T08:59:41;10.90;99.90
52451;DHT22;38366;53.176;6.540;2022-11-15T09:02:14;10.90;99.90
52451;DHT22;38366;53.176;6.540;2022-11-15T09:04:44;10.90;99.90
52451;DHT22;38366;53.176;6.540;2022-11-15T09:07:10;11.10;99.90
52451;DHT22;38366;53.176;6.540;2022-11-15T09:09:37;11.10;99.90
52451;DHT22;38366;53.176;6.540;2022-11-15T09:12:03;11.10;99.90
52451;DHT22;38366;53.176;6.540;2022-11-15T09:14:29;11.20;99.90
52451;DHT22;38366;53.176;6.540;2022-11-15T09:16:55;11.20;99.90
52451;DHT22;38366;53.176;6.540;2022-11-15T09:19:21;11.40;99.90
52451;DHT22;38366;53.176;6.540;2022-11-15T09:21:46;11.50;99.90
52451;DHT22;38366;53.176;6.540;2022-11-15T09:24:12;11.60;99.90
52451;DHT22;38366;53.176;6.540;2022-11-15T09:26:39;11.60;99.90
52451;DHT22;38366;53.176;6.540;2022-11-15T09:29:04;11.50;99.90
52451;DHT22;38366;53.176;6.540;2022-11-15T09:31:33;11.50;99.90
52451;DHT22;38366;53.176;6.540;2022-11-15T09:33:58;11.40;99.90
52451;DHT22;38366;53.176;6.540;2022-11-15T09:36:24;11.50;99.90
52451;DHT22;38366;53.176;6.540;2022-11-15T09:38:50;11.50;99.90
52451;DHT22;38366;53.176;6.540;2022-11-15T09:41:25;11.50;99.90
52451;DHT22;38366;53.176;6.540;2022-11-15T09:49:17;11.50;99.90
52451;DHT22;38366;53.176;6.540;2022-11-15T09:51:43;11.60;99.90
52451;DHT22;38366;53.176;6.540;2022-11-15T09:54:37;11.60;99.90
52451;DHT22;38366;53.176;6.540;2022-11-15T09:57:14;11.60;99.90
52451;DHT22;38366;53.176;6.540;2022-11-15T10:03:12;11.60;99.90
52451;DHT22;38366;53.176;6.540;2022-11-15T10:05:50;11.60;99.90
52451;DHT22;38366;53.176;6.540;2022-11-15T10:11:07;11.70;99.90
52451;DHT22;38366;53.176;6.540;2022-11-15T10:13:36;11.60;99.90
52451;DHT22;38366;53.176;6.540;2022-11-15T10:22:05;11.70;99.90
52451;DHT22;38366;53.176;6.540;2022-11-15T10:24:42;11.70;99.90
52451;DHT22;38366;53.176;6.540;2022-11-15T10:27:11;11.70;99.90
52451;DHT22;38366;53.176;6.540;2022-11-15T10:29:43;11.70;99.90
52451;DHT22;38366;53.176;6.540;2022-11-15T10:32:11;11.70;99.90
52451;DHT22;38366;53.176;6.540;2022-11-15T10:34:37;11.70;99.90
52451;DHT22;38366;53.176;6.540;2022-11-15T10:37:03;11.70;99.90
52451;DHT22;38366;53.176;6.540;2022-11-15T10:39:29;11.70;99.90
52451;DHT22;38366;53.176;6.540;2022-11-15T10:41:55;11.70;99.90
52451;DHT22;38366;53.176;6.540;2022-11-15T10:49:26;11.80;99.90
52451;DHT22;38366;53.176;6.540;2022-11-15T10:51:56;11.80;99.90
52451;DHT22;38366;53.176;6.540;2022-11-15T10:54:28;11.80;99.90
52451;DHT22;38366;53.176;6.540;2022-11-15T10:56:58;11.90;99.90
52451;DHT22;38366;53.176;6.540;2022-11-15T10:59:27;11.80;99.90
52451;DHT22;38366;53.176;6.540;2022-11-15T11:01:54;11.90;99.90
52451;DHT22;38366;53.176;6.540;2022-11-15T11:04:20;11.90;99.90
52451;DHT22;38366;53.176;6.540;2022-11-15T11:09:23;11.90;99.90
52451;DHT22;38366;53.176;6.540;2022-11-15T11:11:51;11.80;99.90
52451;DHT22;38366;53.176;6.540;2022-11-15T11:14:27;11.90;99.90
52451;DHT22;38366;53.176;6.540;2022-11-15T11:17:22;11.90;99.90
52451;DHT22;38366;53.176;6.540;2022-11-15T11:20:21;12.00;99.90
52451;DHT22;38366;53.176;6.540;2022-11-15T11:23:33;12.20;99.90
52451;DHT22;38366;53.176;6.540;2022-11-15T11:31:44;12.50;99.90
52451;DHT22;38366;53.176;6.540;2022-11-15T11:37:19;12.50;99.90
52451;DHT22;38366;53.176;6.540;2022-11-15T11:39:56;12.60;99.90
52451;DHT22;38366;53.176;6.540;2022-11-15T11:48:07;13.30;99.90
52451;DHT22;38366;53.176;6.540;2022-11-15T11:50:37;13.40;99.90
52451;DHT22;38366;53.176;6.540;2022-11-15T11:55:45;13.90;99.90
52451;DHT22;38366;53.176;6.540;2022-11-15T12:01:08;14.40;99.90
52451;DHT22;38366;53.176;6.540;2022-11-15T12:07:42;14.70;99.90
52451;DHT22;38366;53.176;6.540;2022-11-15T12:09:44;14.50;99.90
52451;DHT22;38366;53.176;6.540;2022-11-15T12:12:15;14.50;99.90
52451;DHT22;38366;53.176;6.540;2022-11-15T12:17:35;14.10;99.90
52451;DHT22;38366;53.176;6.540;2022-11-15T12:20:22;14.10;99.90
52451;DHT22;38366;53.176;6.540;2022-11-15T12:23:12;14.30;99.90
52451;DHT22;38366;53.176;6.540;2022-11-15T12:25:57;14.60;99.90
52451;DHT22;38366;53.176;6.540;2022-11-15T12:36:34;14.00;99.90
52451;DHT22;38366;53.176;6.540;2022-11-15T12:39:05;14.00;99.90
52451;DHT22;38366;53.176;6.540;2022-11-15T12:41:33;14.00;99.90
52451;DHT22;38366;53.176;6.540;2022-11-15T12:44:00;14.00;99.90
52451;DHT22;38366;53.176;6.540;2022-11-15T12:49:00;13.80;99.90
52451;DHT22;38366;53.176;6.540;2022-11-15T13:02:37;13.90;99.90
52451;DHT22;38366;53.176;6.540;2022-11-15T13:22:51;14.00;99.90
52451;DHT22;38366;53.176;6.540;2022-11-15T13:30:51;13.70;99.90
52451;DHT22;38366;53.176;6.540;2022-11-15T13:33:25;13.60;99.90
52451;DHT22;38366;53.176;6.540;2022-11-15T13:35:57;13.50;99.90
52451;DHT22;38366;53.176;6.540;2022-11-15T13:38:32;13.50;99.90
52451;DHT22;38366;53.176;6.540;2022-11-15T13:41:00;13.40;99.90
52451;DHT22;38366;53.176;6.540;2022-11-15T13:43:35;13.40;99.90
52451;DHT22;38366;53.176;6.540;2022-11-15T13:48:33;13.30;99.90
52451;DHT22;38366;53.176;6.540;2022-11-15T13:51:03;13.30;99.90
52451;DHT22;38366;53.176;6.540;2022-11-15T13:53:32;13.20;99.90
52451;DHT22;38366;53.176;6.540;2022-11-15T13:55:58;13.30;99.90
52451;DHT22;38366;53.176;6.540;2022-11-15T13:58:24;13.30;99.90
52451;DHT22;38366;53.176;6.540;2022-11-15T14:01:02;13.30;99.90
52451;DHT22;38366;53.176;6.540;2022-11-15T14:03:34;13.20;99.90
52451;DHT22;38366;53.176;6.540;2022-11-15T14:06:04;13.20;99.90
52451;DHT22;38366;53.176;6.540;2022-11-15T14:08:32;13.20;99.90
52451;DHT22;38366;53.176;6.540;2022-11-15T14:14:20;13.00;99.90
52451;DHT22;38366;53.176;6.540;2022-11-15T14:17:18;13.00;99.90
52451;DHT22;38366;53.176;6.540;2022-11-15T14:19:37;13.00;99.90
52451;DHT22;38366;53.176;6.540;2022-11-15T14:22:22;12.90;99.90
52451;DHT22;38366;53.176;6.540;2022-11-15T14:27:32;12.80;99.90
52451;DHT22;38366;53.176;6.540;2022-11-15T14:29:59;12.80;99.90
52451;DHT22;38366;53.176;6.540;2022-11-15T14:32:27;12.70;99.90
52451;DHT22;38366;53.176;6.540;2022-11-15T14:35:00;12.70;99.90
52451;DHT22;38366;53.176;6.540;2022-11-15T14:37:33;12.70;99.90
52451;DHT22;38366;53.176;6.540;2022-11-15T14:40:04;12.60;99.90
52451;DHT22;38366;53.176;6.540;2022-11-15T14:42:30;12.60;99.90
52451;DHT22;38366;53.176;6.540;2022-11-15T14:44:56;12.50;99.90
52451;DHT22;38366;53.176;6.540;2022-11-15T14:47:22;12.50;99.90
52451;DHT22;38366;53.176;6.540;2022-11-15T14:49:48;12.50;99.90
52451;DHT22;38366;53.176;6.540;2022-11-15T14:52:32;12.40;99.90
52451;DHT22;38366;53.176;6.540;2022-11-15T14:55:04;12.30;99.90
52451;DHT22;38366;53.176;6.540;2022-11-15T14:57:34;12.30;99.90
52451;DHT22;38366;53.176;6.540;2022-11-15T15:00:00;12.20;99.90
52451;DHT22;38366;53.176;6.540;2022-11-15T15:02:26;12.20;99.90
52451;DHT22;38366;53.176;6.540;2022-11-15T15:04:52;12.10;99.90
52451;DHT22;38366;53.176;6.540;2022-11-15T15:07:18;12.10;99.90
52451;DHT22;38366;53.176;6.540;2022-11-15T15:09:45;12.10;99.90
52451;DHT22;38366;53.176;6.540;2022-11-15T15:12:19;12.00;99.90
52451;DHT22;38366;53.176;6.540;2022-11-15T15:14:46;12.00;99.90
52451;DHT22;38366;53.176;6.540;2022-11-15T15:17:12;11.90;99.90
52451;DHT22;38366;53.176;6.540;2022-11-15T15:19:38;11.90;99.90
52451;DHT22;38366;53.176;6.540;2022-11-15T15:22:03;11.80;99.90
52451;DHT22;38366;53.176;6.540;2022-11-15T15:24:29;11.80;99.90
52451;DHT22;38366;53.176;6.540;2022-11-15T15:26:55;11.70;99.90
52451;DHT22;38366;53.176;6.540;2022-11-15T15:29:21;11.70;99.90
52451;DHT22;38366;53.176;6.540;2022-11-15T15:31:47;11.60;99.90
52451;DHT22;38366;53.176;6.540;2022-11-15T15:34:12;11.60;99.90
52451;DHT22;38366;53.176;6.540;2022-11-15T15:36:38;11.50;99.90
52451;DHT22;38366;53.176;6.540;2022-11-15T15:39:04;11.50;99.90
52451;DHT22;38366;53.176;6.540;2022-11-15T15:41:29;11.40;99.90
52451;DHT22;38366;53.176;6.540;2022-11-15T15:43:55;11.30;99.90
52451;DHT22;38366;53.176;6.540;2022-11-15T15:46:21;11.40;99.90
52451;DHT22;38366;53.176;6.540;2022-11-15T15:48:47;11.40;99.90
52451;DHT22;38366;53.176;6.540;2022-11-15T15:51:13;11.40;99.90
52451;DHT22;38366;53.176;6.540;2022-11-15T15:53:39;11.30;99.90
52451;DHT22;38366;53.176;6.540;2022-11-15T15:56:05;11.30;99.90
52451;DHT22;38366;53.176;6.540;2022-11-15T15:58:34;11.30;99.90
52451;DHT22;38366;53.176;6.540;2022-11-15T16:00:59;11.30;99.90
52451;DHT22;38366;53.176;6.540;2022-11-15T16:03:25;11.20;99.90
52451;DHT22;38366;53.176;6.540;2022-11-15T16:05:53;11.20;99.90
52451;DHT22;38366;53.176;6.540;2022-11-15T16:08:21;11.20;99.90
52451;DHT22;38366;53.176;6.540;2022-11-15T16:10:47;11.10;99.90
52451;DHT22;38366;53.176;6.540;2022-11-15T16:13:13;11.10;99.90
52451;DHT22;38366;53.176;6.540;2022-11-15T16:15:39;11.10;99.90
52451;DHT22;38366;53.176;6.540;2022-11-15T16:18:05;11.00;99.90
52451;DHT22;38366;53.176;6.540;2022-11-15T16:23:07;11.00;99.90
52451;DHT22;38366;53.176;6.540;2022-11-15T16:25:48;11.00;99.90
52451;DHT22;38366;53.176;6.540;2022-11-15T16:28:18;11.00;99.90
52451;DHT22;38366;53.176;6.540;2022-11-15T16:30:44;10.90;99.90
52451;DHT22;38366;53.176;6.540;2022-11-15T16:33:10;10.90;99.90
52451;DHT22;38366;53.176;6.540;2022-11-15T16:35:35;10.80;99.90
52451;DHT22;38366;53.176;6.540;2022-11-15T16:38:01;10.80;99.90
52451;DHT22;38366;53.176;6.540;2022-11-15T16:40:29;10.80;99.90
52451;DHT22;38366;53.176;6.540;2022-11-15T16:42:58;10.80;99.90
52451;DHT22;38366;53.176;6.540;2022-11-15T16:45:26;10.80;99.90
52451;DHT22;38366;53.176;6.540;2022-11-15T16:47:55;10.80;99.90
52451;DHT22;38366;53.176;6.540;2022-11-15T16:50:26;10.90;99.90
52451;DHT22;38366;53.176;6.540;2022-11-15T16:52:54;10.90;99.90
52451;DHT22;38366;53.176;6.540;2022-11-15T16:55:22;10.90;99.90
52451;DHT22;38366;53.176;6.540;2022-11-15T16:57:48;11.00;99.90
52451;DHT22;38366;53.176;6.540;2022-11-15T17:00:16;11.00;99.90
52451;DHT22;38366;53.176;6.540;2022-11-15T17:02:43;11.00;99.90
52451;DHT22;38366;53.176;6.540;2022-11-15T17:05:10;11.00;99.90
52451;DHT22;38366;53.176;6.540;2022-11-15T17:07:46;11.00;99.90
52451;DHT22;38366;53.176;6.540;2022-11-15T17:10:25;11.60;99.90
52451;DHT22;38366;53.176;6.540;2022-11-15T17:13:00;11.00;99.90
52451;DHT22;38366;53.176;6.540;2022-11-15T17:15:26;11.00;99.90
52451;DHT22;38366;53.176;6.540;2022-11-15T17:17:53;11.10;99.90
52451;DHT22;38366;53.176;6.540;2022-11-15T17:20:20;11.10;99.90
52451;DHT22;38366;53.176;6.540;2022-11-15T17:22:46;11.10;99.90
52451;DHT22;38366;53.176;6.540;2022-11-15T17:25:13;11.30;99.90
52451;DHT22;38366;53.176;6.540;2022-11-15T17:27:39;11.10;99.90
52451;DHT22;38366;53.176;6.540;2022-11-15T17:30:06;11.10;99.90
52451;DHT22;38366;53.176;6.540;2022-11-15T17:32:34;11.10;99.90
52451;DHT22;38366;53.176;6.540;2022-11-15T17:35:02;11.10;99.90
52451;DHT22;38366;53.176;6.540;2022-11-15T17:37:27;11.10;99.90
52451;DHT22;38366;53.176;6.540;2022-11-15T17:39:56;11.10;99.90
52451;DHT22;38366;53.176;6.540;2022-11-15T17:42:22;11.10;99.90
52451;DHT22;38366;53.176;6.540;2022-11-15T17:44:47;11.10;99.90
52451;DHT22;38366;53.176;6.540;2022-11-15T17:47:13;11.10;99.90
52451;DHT22;38366;53.176;6.540;2022-11-15T17:49:45;11.10;99.90
52451;DHT22;38366;53.176;6.540;2022-11-15T17:52:11;11.00;99.90
52451;DHT22;38366;53.176;6.540;2022-11-15T17:54:37;11.00;99.90
52451;DHT22;38366;53.176;6.540;2022-11-15T17:57:13;11.00;99.90
52451;DHT22;38366;53.176;6.540;2022-11-15T17:59:45;11.00;99.90
52451;DHT22;38366;53.176;6.540;2022-11-15T18:02:13;11.40;99.90
52451;DHT22;38366;53.176;6.540;2022-11-15T18:04:39;11.00;99.90
52451;DHT22;38366;53.176;6.540;2022-11-15T18:07:04;10.90;99.90
52451;DHT22;38366;53.176;6.540;2022-11-15T18:09:30;11.00;99.90
52451;DHT22;38366;53.176;6.540;2022-11-15T18:11:56;11.00;99.90
52451;DHT22;38366;53.176;6.540;2022-11-15T18:14:22;11.00;99.90
52451;DHT22;38366;53.176;6.540;2022-11-15T18:16:50;10.90;99.90
52451;DHT22;38366;53.176;6.540;2022-11-15T18:19:16;10.90;99.90
52451;DHT22;38366;53.176;6.540;2022-11-15T18:21:43;10.90;99.90